createdAt,value
2022-10-30T00:00:58.582Z,79.23
2022-10-30T00:03:27.734Z,79.51
2022-10-30T00:05:56.696Z,79.19
2022-10-30T00:08:25.849Z,79.15
2022-10-30T00:10:53.272Z,78.44
2022-10-30T00:13:23.240Z,78.62
2022-10-30T00:15:54.285Z,78.55
2022-10-30T00:18:21.499Z,78.71
2022-10-30T00:20:48.740Z,79.06
2022-10-30T00:23:15.897Z,78.78
2022-10-30T00:25:42.636Z,78.24
2022-10-30T00:28:14.384Z,77.94
2022-10-30T00:30:41.096Z,77.42
2022-10-30T00:33:10.427Z,77.01
2022-10-30T00:35:39.877Z,76.73
2022-10-30T00:38:08.796Z,76.14
2022-10-30T00:40:35.565Z,75.75
2022-10-30T00:43:02.213Z,75.83
2022-10-30T00:45:28.905Z,76.85
2022-10-30T00:47:59.534Z,77.36
2022-10-30T00:50:31.984Z,77.76
2022-10-30T00:53:03.896Z,78.18
2022-10-30T00:55:39.651Z,78.29
2022-10-30T00:58:09.425Z,78.20
2022-10-30T01:00:49.158Z,78.02
2022-10-30T01:03:19.380Z,78.05
2022-10-30T01:05:53.728Z,78.22
2022-10-30T01:08:23.128Z,78.15
2022-10-30T01:10:50.033Z,78.02
2022-10-30T01:13:18.212Z,78.46
2022-10-30T01:16:17.348Z,79.01
2022-10-30T01:18:43.971Z,79.32
2022-10-30T01:21:46.480Z,79.13
2022-10-30T01:24:31.361Z,78.61
2022-10-30T01:27:06.970Z,78.18
2022-10-30T01:29:53.484Z,78.06
2022-10-30T01:32:56.249Z,77.94
2022-10-30T01:35:28.863Z,78.13
2022-10-30T01:38:19.745Z,77.87
2022-10-30T01:40:53.263Z,77.42
2022-10-30T01:43:22.834Z,77.71
2022-10-30T01:45:58.366Z,77.08
2022-10-30T01:48:38.144Z,76.90
2022-10-30T01:51:33.797Z,75.84
2022-10-30T01:54:03.941Z,75.28
2022-10-30T01:56:38.175Z,75.10
2022-10-30T01:59:18.154Z,74.93
2022-10-30T02:01:45.280Z,74.93
2022-10-30T02:04:13.696Z,74.88
2022-10-30T02:06:41.059Z,74.50
2022-10-30T02:09:13.204Z,74.46
2022-10-30T02:11:52.623Z,74.02
2022-10-30T02:14:33.023Z,73.89
2022-10-30T02:17:03.360Z,73.79
2022-10-30T02:19:30.081Z,73.40
2022-10-30T02:22:02.169Z,73.15
2022-10-30T02:24:29.657Z,72.86
2022-10-30T02:26:56.434Z,72.98
2022-10-30T02:29:30.166Z,72.68
2022-10-30T02:31:58.479Z,72.25
2022-10-30T02:34:27.837Z,72.66
2022-10-30T02:36:55.302Z,73.07
2022-10-30T02:39:22.289Z,73.11
2022-10-30T02:41:53.974Z,73.27
2022-10-30T02:44:23.851Z,75.06
2022-10-30T02:46:50.863Z,76.06
2022-10-30T02:49:19.796Z,76.53
2022-10-30T02:51:48.714Z,76.65
2022-10-30T02:54:15.392Z,76.01
2022-10-30T02:56:42.193Z,75.40
2022-10-30T02:59:11.209Z,75.19
2022-10-30T03:01:38.233Z,74.80
2022-10-30T03:04:08.813Z,74.89
2022-10-30T03:06:35.541Z,75.20
2022-10-30T03:09:04.941Z,74.74
2022-10-30T03:11:33.982Z,74.71
2022-10-30T03:14:00.714Z,74.15
2022-10-30T03:16:32.064Z,74.40
2022-10-30T03:18:59.271Z,73.87
2022-10-30T03:21:30.053Z,73.52
2022-10-30T03:23:59.053Z,73.54
2022-10-30T03:26:25.994Z,72.81
2022-10-30T03:29:04.459Z,73.55
2022-10-30T03:31:32.634Z,73.46
2022-10-30T03:34:19.563Z,73.12
2022-10-30T03:36:51.132Z,73.31
2022-10-30T03:39:20.634Z,73.08
2022-10-30T03:41:47.498Z,72.94
2022-10-30T03:44:18.903Z,72.34
2022-10-30T03:46:45.633Z,72.28
2022-10-30T03:49:28.243Z,72.40
2022-10-30T03:51:56.361Z,72.51
2022-10-30T03:54:25.137Z,72.40
2022-10-30T03:56:52.004Z,72.36
2022-10-30T03:59:19.657Z,72.38
2022-10-30T04:02:03.346Z,72.11
2022-10-30T04:04:30.139Z,72.19
2022-10-30T04:06:56.864Z,71.95
2022-10-30T04:09:25.863Z,71.86
2022-10-30T04:11:53.703Z,71.89
2022-10-30T04:14:20.438Z,71.88
2022-10-30T04:16:48.124Z,72.03
2022-10-30T04:19:19.580Z,71.91
2022-10-30T04:21:50.012Z,71.50
2022-10-30T04:24:20.548Z,71.56
2022-10-30T04:26:53.994Z,71.56
2022-10-30T04:29:20.702Z,71.15
2022-10-30T04:31:47.601Z,71.29
2022-10-30T04:34:14.455Z,71.32
2022-10-30T04:36:43.503Z,71.12
2022-10-30T04:39:12.045Z,70.88
2022-10-30T04:41:38.970Z,70.99
2022-10-30T04:44:13.491Z,70.70
2022-10-30T04:46:40.265Z,70.94
2022-10-30T04:49:09.462Z,70.96
2022-10-30T04:51:36.203Z,70.65
2022-10-30T04:54:05.166Z,70.37
2022-10-30T04:56:34.314Z,70.35
2022-10-30T04:59:04.639Z,70.49
2022-10-30T05:01:31.659Z,70.51
2022-10-30T05:03:59.167Z,70.67
2022-10-30T05:06:30.792Z,70.61
2022-10-30T05:08:58.097Z,70.46
2022-10-30T05:11:33.749Z,70.45
2022-10-30T05:14:00.587Z,70.27
2022-10-30T05:16:31.992Z,70.15
2022-10-30T05:19:00.754Z,69.86
2022-10-30T05:21:31.047Z,69.88
2022-10-30T05:24:00.317Z,70.05
2022-10-30T05:26:30.191Z,69.88
2022-10-30T05:28:56.906Z,69.96
2022-10-30T05:31:23.651Z,70.13
2022-10-30T05:33:56.314Z,69.98
2022-10-30T05:36:24.663Z,69.41
2022-10-30T05:38:51.604Z,70.26
2022-10-30T05:41:38.574Z,70.29
2022-10-30T05:44:05.296Z,70.14
2022-10-30T05:46:33.313Z,69.99
2022-10-30T05:49:11.091Z,69.84
2022-10-30T05:51:39.749Z,69.93
2022-10-30T05:54:09.902Z,70.14
2022-10-30T05:56:43.437Z,70.12
2022-10-30T05:59:12.444Z,70.07
2022-10-30T06:01:41.655Z,70.21
2022-10-30T06:04:12.170Z,69.67
2022-10-30T06:06:41.183Z,69.78
2022-10-30T06:09:10.190Z,69.82
2022-10-30T06:11:58.547Z,69.63
2022-10-30T06:14:39.793Z,69.06
2022-10-30T06:17:11.231Z,68.64
2022-10-30T06:19:54.207Z,68.63
2022-10-30T06:22:41.190Z,69.32
2022-10-30T06:25:15.197Z,69.75
2022-10-30T06:28:00.569Z,69.43
2022-10-30T06:30:29.971Z,70.22
2022-10-30T06:33:02.937Z,70.72
2022-10-30T06:35:30.603Z,70.52
2022-10-30T06:38:00.378Z,70.70
2022-10-30T06:40:31.065Z,70.56
2022-10-30T06:43:30.192Z,70.28
2022-10-30T06:46:00.523Z,70.25
2022-10-30T06:48:30.195Z,69.99
2022-10-30T06:50:58.269Z,69.66
2022-10-30T06:53:29.241Z,69.59
2022-10-30T06:56:04.661Z,69.63
2022-10-30T06:58:43.292Z,69.41
2022-10-30T07:01:15.216Z,68.97
2022-10-30T07:04:01.887Z,69.20
2022-10-30T07:06:31.143Z,69.39
2022-10-30T07:09:00.574Z,69.28
2022-10-30T07:11:29.768Z,68.73
2022-10-30T07:14:28.525Z,69.49
2022-10-30T07:17:13.950Z,69.33
2022-10-30T07:19:44.287Z,69.78
2022-10-30T07:22:11.050Z,69.68
2022-10-30T07:24:42.419Z,69.63
2022-10-30T07:27:29.357Z,70.04
2022-10-30T07:30:20.708Z,70.65
2022-10-30T07:33:09.466Z,71.15
2022-10-30T07:36:15.454Z,71.13
2022-10-30T07:38:47.693Z,70.67
2022-10-30T07:41:26.933Z,70.53
2022-10-30T07:44:18.995Z,69.96
2022-10-30T07:46:48.746Z,69.57
2022-10-30T07:49:56.122Z,69.22
2022-10-30T07:52:23.103Z,69.12
2022-10-30T07:54:51.737Z,69.10
2022-10-30T07:57:44.499Z,68.47
2022-10-30T08:00:40.089Z,69.52
2022-10-30T08:03:27.747Z,69.10
2022-10-30T08:06:04.606Z,68.89
2022-10-30T08:08:40.402Z,68.56
2022-10-30T08:11:28.787Z,67.59
2022-10-30T08:14:00.437Z,68.76
2022-10-30T08:16:30.476Z,68.82
2022-10-30T08:19:02.800Z,68.53
2022-10-30T08:21:29.676Z,68.18
2022-10-30T08:24:04.399Z,67.96
2022-10-30T08:26:35.670Z,68.00
2022-10-30T08:29:03.406Z,66.91
2022-10-30T08:31:35.878Z,67.14
2022-10-30T08:34:02.901Z,67.01
2022-10-30T08:36:38.915Z,67.46
2022-10-30T08:39:07.938Z,67.65
2022-10-30T08:41:52.386Z,67.23
2022-10-30T08:44:20.640Z,67.85
2022-10-30T08:47:07.645Z,68.47
2022-10-30T08:49:34.415Z,68.68
2022-10-30T08:52:08.944Z,68.06
2022-10-30T08:54:35.856Z,67.67
2022-10-30T08:57:02.798Z,66.99
2022-10-30T08:59:31.786Z,66.83
2022-10-30T09:02:03.891Z,66.62
2022-10-30T09:04:51.457Z,65.78
2022-10-30T09:07:37.075Z,66.19
2022-10-30T09:10:30.286Z,66.21
2022-10-30T09:13:03.336Z,67.26
2022-10-30T09:15:30.480Z,68.80
2022-10-30T09:18:04.785Z,68.86
2022-10-30T09:20:34.571Z,69.14
2022-10-30T09:23:03.980Z,69.61
2022-10-30T09:25:35.882Z,68.68
2022-10-30T09:28:21.085Z,68.13
2022-10-30T09:31:14.268Z,68.55
2022-10-30T09:33:43.196Z,68.52
2022-10-30T09:36:28.267Z,67.05
2022-10-30T09:38:55.754Z,67.50
2022-10-30T09:41:31.726Z,66.89
2022-10-30T09:44:25.566Z,66.27
2022-10-30T09:46:55.369Z,65.83
2022-10-30T09:49:43.920Z,65.11
2022-10-30T09:52:37.480Z,64.59
2022-10-30T09:55:31.937Z,64.00
2022-10-30T09:58:19.077Z,63.45
2022-10-30T10:01:22.310Z,63.06
2022-10-30T10:04:02.316Z,62.45
2022-10-30T10:06:48.909Z,61.90
2022-10-30T10:09:29.715Z,61.43
2022-10-30T10:12:33.655Z,61.85
2022-10-30T10:15:01.029Z,60.61
2022-10-30T10:17:36.149Z,61.92
2022-10-30T10:20:06.120Z,61.89
2022-10-30T10:22:41.682Z,61.48
2022-10-30T10:25:14.812Z,60.70
2022-10-30T10:27:56.671Z,59.34
2022-10-30T10:30:24.433Z,60.94
2022-10-30T10:33:29.835Z,59.79
2022-10-30T10:36:40.064Z,59.70
2022-10-30T10:39:25.119Z,59.36
2022-10-30T10:42:22.822Z,57.76
2022-10-30T10:45:09.229Z,57.97
2022-10-30T10:47:54.657Z,59.49
2022-10-30T10:50:34.045Z,58.41
2022-10-30T10:53:11.222Z,60.15
2022-10-30T10:55:39.224Z,58.57
2022-10-30T10:58:27.082Z,58.71
2022-10-30T11:00:55.949Z,59.30
2022-10-30T11:03:42.976Z,59.30
2022-10-30T11:06:41.085Z,58.45
2022-10-30T11:09:16.965Z,58.12
2022-10-30T11:11:55.405Z,56.60
2022-10-30T11:14:28.600Z,57.60
2022-10-30T11:17:01.854Z,58.27
2022-10-30T11:19:30.107Z,57.87
2022-10-30T11:22:03.495Z,57.89
2022-10-30T11:24:42.661Z,57.86
2022-10-30T11:27:21.956Z,56.50
2022-10-30T11:30:01.697Z,57.48
2022-10-30T11:32:31.061Z,57.32
2022-10-30T11:35:15.297Z,55.47
2022-10-30T11:37:54.373Z,57.06
2022-10-30T11:40:23.881Z,57.00
2022-10-30T11:42:56.194Z,56.51
2022-10-30T11:45:37.948Z,56.96
2022-10-30T11:48:32.329Z,56.66
2022-10-30T11:51:05.316Z,56.43
2022-10-30T11:53:39.282Z,55.78
2022-10-30T11:56:22.434Z,54.76
2022-10-30T11:59:00.214Z,55.13
2022-10-30T12:01:37.178Z,55.04
2022-10-30T12:04:23.027Z,55.09
2022-10-30T12:07:12.517Z,55.54
2022-10-30T12:09:46.788Z,55.97
2022-10-30T12:12:25.774Z,55.74
2022-10-30T12:14:53.065Z,55.88
2022-10-30T12:17:22.801Z,55.35
2022-10-30T12:19:53.649Z,55.09
2022-10-30T12:22:32.038Z,54.47
2022-10-30T12:25:28.843Z,54.31
2022-10-30T12:28:07.921Z,54.12
2022-10-30T12:30:39.315Z,54.37
2022-10-30T12:33:23.311Z,53.36
2022-10-30T12:36:00.534Z,53.26
2022-10-30T12:38:36.781Z,53.36
2022-10-30T12:41:24.788Z,52.64
2022-10-30T12:44:11.808Z,53.00
2022-10-30T12:46:58.804Z,54.24
2022-10-30T12:49:40.118Z,53.94
2022-10-30T12:52:26.141Z,53.78
2022-10-30T12:55:08.826Z,53.49
2022-10-30T12:57:43.393Z,54.47
2022-10-30T13:00:24.944Z,55.29
2022-10-30T13:03:18.900Z,56.93
2022-10-30T13:05:53.676Z,57.64
2022-10-30T13:08:32.581Z,58.12
2022-10-30T13:11:31.640Z,58.01
2022-10-30T13:13:59.546Z,57.81
2022-10-30T13:16:30.704Z,57.92
2022-10-30T13:19:06.238Z,58.45
2022-10-30T13:22:19.216Z,58.94
2022-10-30T13:24:49.719Z,57.62
2022-10-30T13:27:21.611Z,57.67
2022-10-30T13:30:06.270Z,57.24
2022-10-30T13:32:54.413Z,58.28
2022-10-30T13:35:27.449Z,58.68
2022-10-30T13:38:03.444Z,58.66
2022-10-30T13:40:43.325Z,58.56
2022-10-30T13:43:41.814Z,58.48
2022-10-30T13:46:32.651Z,59.06
2022-10-30T13:49:47.097Z,59.00
2022-10-30T13:52:19.406Z,59.19
2022-10-30T13:55:04.896Z,59.15
2022-10-30T13:57:57.741Z,59.05
2022-10-30T14:00:52.380Z,58.90
2022-10-30T14:03:25.299Z,58.71
2022-10-30T14:06:00.472Z,58.60
2022-10-30T14:09:08.906Z,58.70
2022-10-30T14:11:35.558Z,59.13
2022-10-30T14:14:31.695Z,59.31
2022-10-30T14:17:12.773Z,59.84
2022-10-30T14:20:10.419Z,59.95
2022-10-30T14:22:40.387Z,59.48
2022-10-30T14:25:14.671Z,60.16
2022-10-30T14:27:41.748Z,60.21
2022-10-30T14:30:25.603Z,60.53
2022-10-30T14:32:54.675Z,60.76
2022-10-30T14:36:10.347Z,60.99
2022-10-30T14:38:39.998Z,60.61
2022-10-30T14:41:13.819Z,60.76
2022-10-30T14:43:57.971Z,60.71
2022-10-30T14:46:36.480Z,60.66
2022-10-30T14:49:24.498Z,61.04
2022-10-30T14:52:17.668Z,61.27
2022-10-30T14:55:16.651Z,62.10
2022-10-30T14:57:48.608Z,62.81
2022-10-30T15:00:23.753Z,62.44
2022-10-30T15:03:28.740Z,62.88
2022-10-30T15:06:57.199Z,62.90
2022-10-30T15:09:26.144Z,63.11
2022-10-30T15:15:01.819Z,63.13
2022-10-30T15:17:41.601Z,63.50
2022-10-30T15:20:33.034Z,64.34
2022-10-30T15:23:24.747Z,64.21
2022-10-30T15:25:56.990Z,64.14
2022-10-30T15:28:39.532Z,64.66
2022-10-30T15:31:17.743Z,64.84
2022-10-30T15:33:47.995Z,64.88
2022-10-30T15:36:26.115Z,65.11
2022-10-30T15:39:15.001Z,65.73
2022-10-30T15:41:55.564Z,65.86
2022-10-30T15:44:38.218Z,65.85
2022-10-30T15:47:14.060Z,65.96
2022-10-30T15:49:50.117Z,66.26
2022-10-30T15:52:22.956Z,66.68
2022-10-30T15:55:05.772Z,66.43
2022-10-30T16:00:34.774Z,67.08
2022-10-30T16:03:02.644Z,67.06
2022-10-30T16:05:31.076Z,66.76
2022-10-30T16:07:59.758Z,67.13
2022-10-30T16:10:31.405Z,66.99
2022-10-30T16:13:05.190Z,67.09
2022-10-30T16:15:37.635Z,67.05
2022-10-30T16:18:39.566Z,66.99
2022-10-30T16:21:14.359Z,66.76
2022-10-30T16:23:57.831Z,66.74
2022-10-30T16:26:40.805Z,66.50
2022-10-30T16:29:17.051Z,66.59
2022-10-30T16:31:52.656Z,66.39
2022-10-30T16:34:24.476Z,66.23
2022-10-30T16:36:54.159Z,66.29
2022-10-30T16:39:24.104Z,66.53
2022-10-30T16:42:01.148Z,66.60
2022-10-30T16:44:36.625Z,66.60
2022-10-30T16:47:21.996Z,66.36
2022-10-30T16:49:55.581Z,66.49
2022-10-30T16:52:30.033Z,66.35
2022-10-30T16:55:02.000Z,66.51
2022-10-30T16:57:33.049Z,66.05
2022-10-30T17:00:03.541Z,66.19
2022-10-30T17:02:36.105Z,66.17
2022-10-30T17:05:20.440Z,66.27
2022-10-30T17:07:55.299Z,66.72
2022-10-30T17:10:45.146Z,66.61
2022-10-30T17:13:35.630Z,66.98
2022-10-30T17:16:24.805Z,67.77
2022-10-30T17:18:56.558Z,67.35
2022-10-30T17:21:47.848Z,67.50
2022-10-30T17:24:47.793Z,67.86
2022-10-30T17:27:29.502Z,67.80
2022-10-30T17:29:59.403Z,67.70
2022-10-30T17:32:28.234Z,67.56
2022-10-30T17:35:01.362Z,67.42
2022-10-30T17:37:28.348Z,67.12
2022-10-30T17:39:57.360Z,67.28
2022-10-30T17:42:24.032Z,67.14
2022-10-30T17:44:53.212Z,67.06
2022-10-30T17:47:23.791Z,66.97
2022-10-30T17:49:50.732Z,66.98
2022-10-30T17:52:22.478Z,67.11
2022-10-30T17:54:49.379Z,67.04
2022-10-30T17:57:18.799Z,67.08
2022-10-30T17:59:45.532Z,67.06
2022-10-30T18:02:30.645Z,67.29
2022-10-30T18:04:59.854Z,67.11
2022-10-30T18:07:26.616Z,67.29
2022-10-30T18:09:55.647Z,66.93
2022-10-30T18:12:24.218Z,67.16
2022-10-30T18:14:50.851Z,67.09
2022-10-30T18:17:17.625Z,67.56
2022-10-30T18:19:44.335Z,67.98
2022-10-30T18:22:13.234Z,67.64
2022-10-30T18:24:39.973Z,67.97
2022-10-30T18:27:09.155Z,67.43
2022-10-30T18:29:35.916Z,67.40
2022-10-30T18:32:09.528Z,67.57
2022-10-30T18:34:36.749Z,67.42
2022-10-30T18:37:03.929Z,67.30
2022-10-30T18:42:11.791Z,67.31
2022-10-30T18:44:43.859Z,66.99
2022-10-30T18:47:11.380Z,67.10
2022-10-30T18:49:38.086Z,67.57
2022-10-30T18:52:04.837Z,67.46
2022-10-30T18:54:31.521Z,67.38
2022-10-30T18:57:00.473Z,67.29
2022-10-30T18:59:27.409Z,67.34
2022-10-30T19:01:54.177Z,67.12
2022-10-30T19:04:22.456Z,67.14
2022-10-30T19:06:49.627Z,67.09
2022-10-30T19:09:19.332Z,68.04
2022-10-30T19:11:46.039Z,69.21
2022-10-30T19:14:13.810Z,69.57
2022-10-30T19:16:42.999Z,69.60
2022-10-30T19:19:15.179Z,69.49
2022-10-30T19:21:44.463Z,69.21
2022-10-30T19:24:17.818Z,70.13
2022-10-30T19:26:44.533Z,69.99
2022-10-30T19:29:13.493Z,70.45
2022-10-30T19:31:42.590Z,70.89
2022-10-30T19:34:11.733Z,71.20
2022-10-30T19:36:38.497Z,70.78
2022-10-30T19:39:12.420Z,70.54
2022-10-30T19:41:40.163Z,70.71
2022-10-30T19:44:09.215Z,70.67
2022-10-30T19:46:36.729Z,70.85
2022-10-30T19:49:30.135Z,70.89
2022-10-30T19:51:56.919Z,70.89
2022-10-30T19:54:26.515Z,70.88
2022-10-30T19:56:55.738Z,70.81
2022-10-30T19:59:25.553Z,71.18
2022-10-30T20:01:52.404Z,71.11
2022-10-30T20:04:19.251Z,71.30
2022-10-30T20:06:48.349Z,72.17
2022-10-30T20:09:15.100Z,72.50
2022-10-30T20:11:47.156Z,72.61
2022-10-30T20:14:15.749Z,72.19
2022-10-30T20:16:44.889Z,72.75
2022-10-30T20:19:29.285Z,72.96
2022-10-30T20:21:56.182Z,73.02
2022-10-30T20:24:23.391Z,73.12
2022-10-30T20:26:50.639Z,73.29
2022-10-30T20:29:17.874Z,72.94
2022-10-30T20:31:44.582Z,73.17
2022-10-30T20:34:13.583Z,73.35
2022-10-30T20:36:40.599Z,73.13
2022-10-30T20:39:11.533Z,73.38
2022-10-30T20:41:40.653Z,73.06
2022-10-30T20:44:11.853Z,73.14
2022-10-30T20:46:41.144Z,74.15
2022-10-30T20:49:17.881Z,74.13
2022-10-30T20:51:45.493Z,74.40
2022-10-30T20:54:17.093Z,74.53
2022-10-30T20:56:43.632Z,74.37
2022-10-30T20:59:10.358Z,75.04
2022-10-30T21:01:41.950Z,74.65
2022-10-30T21:04:11.145Z,74.61
2022-10-30T21:06:38.045Z,74.56
2022-10-30T21:09:04.734Z,74.52
2022-10-30T21:11:31.414Z,74.66
2022-10-30T21:13:58.372Z,74.43
2022-10-30T21:16:25.100Z,73.87
2022-10-30T21:18:52.925Z,73.64
2022-10-30T21:21:24.477Z,74.34
2022-10-30T21:23:55.670Z,75.05
2022-10-30T21:26:24.824Z,75.78
2022-10-30T21:28:58.650Z,75.57
2022-10-30T21:31:25.356Z,75.29
2022-10-30T21:33:54.363Z,75.58
2022-10-30T21:36:21.286Z,75.48
2022-10-30T21:38:48.390Z,75.60
2022-10-30T21:41:18.173Z,76.62
2022-10-30T21:43:50.097Z,76.74
2022-10-30T21:46:17.294Z,76.81
2022-10-30T21:48:44.020Z,76.36
2022-10-30T21:51:15.943Z,75.95
2022-10-30T21:53:43.192Z,75.79
2022-10-30T21:56:15.243Z,76.26
2022-10-30T21:58:44.359Z,76.87
2022-10-30T22:01:23.409Z,76.99
2022-10-30T22:03:50.335Z,77.08
2022-10-30T22:06:18.234Z,76.95
2022-10-30T22:08:47.894Z,77.44
2022-10-30T22:11:18.063Z,77.51
2022-10-30T22:13:47.859Z,77.15
2022-10-30T22:16:15.168Z,77.42
2022-10-30T22:18:41.896Z,77.82
2022-10-30T22:21:13.405Z,78.14
2022-10-30T22:23:42.591Z,78.60
2022-10-30T22:26:14.663Z,78.26
2022-10-30T22:28:42.182Z,77.96
2022-10-30T22:31:10.727Z,77.57
2022-10-30T22:33:39.676Z,77.69
2022-10-30T22:36:20.436Z,77.66
2022-10-30T22:38:47.830Z,76.87
2022-10-30T22:41:17.221Z,76.64
2022-10-30T22:43:45.571Z,76.86
2022-10-30T22:46:15.005Z,76.58
2022-10-30T22:48:44.876Z,75.87
2022-10-30T22:51:15.317Z,75.70
2022-10-30T22:53:47.457Z,75.86
2022-10-30T22:56:19.225Z,75.97
2022-10-30T22:58:47.009Z,76.07
2022-10-30T23:01:23.558Z,76.40
2022-10-30T23:03:52.056Z,76.50
2022-10-30T23:06:20.917Z,76.60
2022-10-30T23:08:47.914Z,76.91
2022-10-30T23:11:16.946Z,77.14
2022-10-30T23:13:46.785Z,77.01
2022-10-30T23:16:16.687Z,77.08
2022-10-30T23:18:43.946Z,77.21
2022-10-30T23:21:13.563Z,77.45
2022-10-30T23:23:43.402Z,77.65
2022-10-30T23:26:11.651Z,77.79
2022-10-30T23:28:38.348Z,77.53
2022-10-30T23:31:20.520Z,77.34
2022-10-30T23:33:53.498Z,77.00
2022-10-30T23:36:22.869Z,76.51
2022-10-30T23:38:56.790Z,76.57
2022-10-30T23:41:28.581Z,76.71
2022-10-30T23:43:58.984Z,77.16
2022-10-30T23:46:26.127Z,77.41
2022-10-30T23:48:52.915Z,77.71
2022-10-30T23:51:20.759Z,78.12
2022-10-30T23:53:50.227Z,77.70
2022-10-30T23:56:17.538Z,77.76
2022-10-30T23:58:51.073Z,77.36
